createdAt,value
2018-05-31T00:00:06.379Z,13.10
2018-05-31T00:01:06.326Z,13.00
2018-05-31T00:02:06.272Z,13.40
2018-05-31T00:03:06.214Z,13.40
2018-05-31T00:04:06.151Z,14.00
2018-05-31T00:05:06.098Z,13.20
2018-05-31T00:06:06.043Z,13.50
2018-05-31T00:07:05.988Z,13.00
2018-05-31T00:08:05.928Z,13.70
2018-05-31T00:09:05.872Z,13.60
2018-05-31T00:10:05.811Z,14.90
2018-05-31T00:11:05.756Z,13.70
2018-05-31T00:12:05.699Z,13.70
2018-05-31T00:13:05.646Z,12.30
2018-05-31T00:14:05.589Z,12.40
2018-05-31T00:15:05.532Z,13.20
2018-05-31T00:16:05.474Z,13.80
2018-05-31T00:17:05.418Z,13.10
2018-05-31T00:18:05.359Z,13.10
2018-05-31T00:19:05.301Z,12.80
2018-05-31T00:20:05.247Z,13.50
2018-05-31T00:21:05.189Z,13.20
2018-05-31T00:22:05.132Z,13.70
2018-05-31T00:23:05.083Z,12.90
2018-05-31T00:24:05.020Z,12.70
2018-05-31T00:25:04.998Z,13.40
2018-05-31T00:26:04.909Z,13.10
2018-05-31T00:27:04.851Z,13.40
2018-05-31T00:28:04.792Z,12.50
2018-05-31T00:29:04.734Z,12.90
2018-05-31T00:30:04.677Z,13.10
2018-05-31T00:31:04.623Z,14.10
2018-05-31T00:32:04.558Z,13.50
2018-05-31T00:33:04.502Z,12.50
2018-05-31T00:34:04.470Z,13.00
2018-05-31T00:35:04.388Z,12.70
2018-05-31T00:36:04.338Z,11.40
2018-05-31T00:37:04.275Z,12.50
2018-05-31T00:38:04.221Z,12.40
2018-05-31T00:39:04.166Z,11.50
2018-05-31T00:40:04.105Z,13.00
2018-05-31T00:41:04.053Z,12.40
2018-05-31T00:42:03.991Z,12.30
2018-05-31T00:43:03.934Z,13.00
2018-05-31T00:44:03.876Z,11.90
2018-05-31T00:45:03.822Z,12.00
2018-05-31T00:46:03.766Z,12.50
2018-05-31T00:47:03.718Z,12.60
2018-05-31T00:48:03.647Z,11.70
2018-05-31T00:49:03.597Z,12.50
2018-05-31T00:50:03.532Z,12.10
2018-05-31T00:51:03.476Z,12.40
2018-05-31T00:52:03.422Z,12.00
2018-05-31T00:53:03.363Z,12.30
2018-05-31T00:54:03.306Z,12.50
2018-05-31T00:55:03.255Z,11.50
2018-05-31T00:56:03.192Z,12.40
2018-05-31T00:57:03.141Z,12.90
2018-05-31T00:58:03.078Z,11.10
2018-05-31T00:59:03.022Z,11.80
2018-05-31T01:00:02.963Z,11.50
2018-05-31T01:01:02.907Z,11.30
2018-05-31T01:02:02.847Z,11.70
2018-05-31T01:03:02.795Z,11.50
2018-05-31T01:04:02.732Z,11.20
2018-05-31T01:05:02.674Z,11.00
2018-05-31T01:06:02.623Z,10.70
2018-05-31T01:07:02.563Z,11.40
2018-05-31T01:08:02.504Z,11.90
2018-05-31T01:09:02.446Z,11.70
2018-05-31T01:10:02.389Z,11.70
2018-05-31T01:11:02.332Z,11.60
2018-05-31T01:12:02.275Z,11.20
2018-05-31T01:13:02.220Z,11.70
2018-05-31T01:14:02.158Z,11.90
2018-05-31T01:15:02.108Z,11.60
2018-05-31T01:16:02.045Z,11.50
2018-05-31T01:17:01.988Z,11.30
2018-05-31T01:18:01.934Z,11.40
2018-05-31T01:19:01.874Z,11.70
2018-05-31T01:20:01.819Z,11.20
2018-05-31T01:21:01.762Z,11.20
2018-05-31T01:22:01.704Z,11.30
2018-05-31T01:23:01.648Z,11.80
2018-05-31T01:24:01.592Z,11.80
2018-05-31T01:25:01.531Z,11.60
2018-05-31T01:26:01.471Z,12.00
2018-05-31T01:27:01.414Z,11.50
2018-05-31T01:28:01.355Z,11.30
2018-05-31T01:29:01.299Z,12.00
2018-05-31T01:30:01.247Z,11.10
2018-05-31T01:31:01.182Z,11.60
2018-05-31T01:32:01.169Z,11.50
2018-05-31T01:33:01.073Z,11.00
2018-05-31T01:34:01.014Z,11.40
2018-05-31T01:35:00.957Z,11.30
2018-05-31T01:36:00.896Z,10.20
2018-05-31T01:37:00.844Z,11.40
2018-05-31T01:38:00.784Z,11.60
2018-05-31T01:39:00.726Z,10.80
2018-05-31T01:40:00.667Z,10.50
2018-05-31T01:41:00.620Z,11.40
2018-05-31T01:42:00.557Z,11.50
2018-05-31T01:43:00.500Z,11.20
2018-05-31T01:44:00.437Z,11.40
2018-05-31T01:45:00.386Z,12.20
2018-05-31T01:46:00.322Z,12.40
2018-05-31T01:47:00.268Z,12.30
2018-05-31T01:48:00.206Z,12.60
2018-05-31T01:49:00.149Z,12.00
2018-05-31T01:50:00.096Z,12.20
2018-05-31T01:51:00.044Z,12.00
2018-05-31T01:51:59.977Z,11.80
2018-05-31T01:52:59.927Z,12.70
2018-05-31T01:53:59.864Z,12.40
2018-05-31T01:54:59.808Z,11.60
2018-05-31T01:55:59.750Z,12.20
2018-05-31T01:56:59.699Z,11.80
2018-05-31T01:57:59.632Z,11.40
2018-05-31T01:58:59.583Z,12.20
2018-05-31T01:59:59.513Z,12.30
2018-05-31T02:00:59.462Z,11.60
2018-05-31T02:01:59.406Z,11.60
2018-05-31T02:02:59.350Z,12.20
2018-05-31T02:03:59.287Z,11.30
2018-05-31T02:04:59.232Z,11.10
2018-05-31T02:05:59.172Z,10.60
2018-05-31T02:06:59.114Z,11.40
2018-05-31T02:07:59.056Z,11.30
2018-05-31T02:08:58.997Z,11.00
2018-05-31T02:09:58.942Z,10.50
2018-05-31T02:10:58.893Z,11.00
2018-05-31T02:11:58.828Z,11.10
2018-05-31T02:12:58.771Z,10.30
2018-05-31T02:13:58.714Z,10.60
2018-05-31T02:14:58.656Z,10.50
2018-05-31T02:15:58.599Z,10.00
2018-05-31T02:16:58.541Z,11.30
2018-05-31T02:17:58.482Z,10.40
2018-05-31T02:18:58.424Z,10.60
2018-05-31T02:19:58.367Z,10.60
2018-05-31T02:20:58.310Z,9.70
2018-05-31T02:21:58.252Z,10.40
2018-05-31T02:22:58.196Z,9.50
2018-05-31T02:23:58.139Z,10.50
2018-05-31T02:24:58.089Z,9.90
2018-05-31T02:25:58.025Z,9.70
2018-05-31T02:26:57.960Z,10.00
2018-05-31T02:27:57.912Z,10.10
2018-05-31T02:28:57.852Z,9.60
2018-05-31T02:29:57.793Z,10.50
2018-05-31T02:30:57.733Z,9.80
2018-05-31T02:31:57.677Z,10.60
2018-05-31T02:32:57.619Z,10.10
2018-05-31T02:33:57.568Z,9.90
2018-05-31T02:34:57.515Z,9.70
2018-05-31T02:35:57.456Z,10.00
2018-05-31T02:36:57.393Z,11.10
2018-05-31T02:37:57.332Z,10.60
2018-05-31T02:38:57.273Z,10.90
2018-05-31T02:39:57.223Z,10.40
2018-05-31T02:40:57.158Z,11.60
2018-05-31T02:41:57.111Z,10.50
2018-05-31T02:42:57.045Z,10.90
2018-05-31T02:43:56.986Z,10.70
2018-05-31T02:44:56.929Z,11.10
2018-05-31T02:45:56.875Z,10.90
2018-05-31T02:46:56.814Z,11.10
2018-05-31T02:47:56.757Z,11.00
2018-05-31T02:48:56.714Z,11.10
2018-05-31T02:49:56.642Z,11.50
2018-05-31T02:50:56.582Z,11.30
2018-05-31T02:51:56.527Z,11.70
2018-05-31T02:52:56.469Z,11.70
2018-05-31T02:53:56.416Z,10.90
2018-05-31T02:54:56.355Z,11.10
2018-05-31T02:55:56.298Z,11.40
2018-05-31T02:56:56.238Z,10.70
2018-05-31T02:57:56.180Z,10.90
2018-05-31T02:58:56.119Z,11.30
2018-05-31T02:59:56.067Z,11.00
2018-05-31T03:00:56.010Z,12.10
2018-05-31T03:01:55.950Z,12.10
2018-05-31T03:02:55.891Z,12.60
2018-05-31T03:03:55.831Z,10.90
2018-05-31T03:04:55.780Z,11.90
2018-05-31T03:05:55.724Z,10.90
2018-05-31T03:06:55.661Z,11.20
2018-05-31T03:07:55.603Z,11.50
2018-05-31T03:08:55.550Z,11.30
2018-05-31T03:09:55.484Z,11.50
2018-05-31T03:10:55.431Z,12.20
2018-05-31T03:11:55.366Z,11.90
2018-05-31T03:12:55.318Z,12.10
2018-05-31T03:13:55.256Z,12.60
2018-05-31T03:14:55.198Z,12.00
2018-05-31T03:15:55.138Z,11.40
2018-05-31T03:16:55.085Z,11.50
2018-05-31T03:17:55.026Z,11.90
2018-05-31T03:18:54.967Z,12.00
2018-05-31T03:19:54.909Z,11.90
2018-05-31T03:20:54.852Z,11.00
2018-05-31T03:21:54.790Z,11.00
2018-05-31T03:22:54.734Z,11.50
2018-05-31T03:23:54.674Z,10.90
2018-05-31T03:24:54.616Z,11.20
2018-05-31T03:25:54.565Z,11.30
2018-05-31T03:26:54.511Z,11.20
2018-05-31T03:27:54.455Z,10.70
2018-05-31T03:28:54.389Z,11.10
2018-05-31T03:29:54.334Z,11.20
2018-05-31T03:30:54.270Z,10.70
2018-05-31T03:31:54.220Z,10.80
2018-05-31T03:32:54.156Z,11.80
2018-05-31T03:33:54.097Z,11.30
2018-05-31T03:34:54.040Z,11.60
2018-05-31T03:35:53.981Z,11.70
2018-05-31T03:36:53.922Z,11.70
2018-05-31T03:37:53.867Z,11.20
2018-05-31T03:38:53.814Z,11.50
2018-05-31T03:39:53.751Z,11.10
2018-05-31T03:40:53.696Z,11.80
2018-05-31T03:41:53.633Z,11.20
2018-05-31T03:42:53.576Z,11.10
2018-05-31T03:43:53.519Z,11.40
2018-05-31T03:44:53.460Z,11.20
2018-05-31T03:45:53.405Z,10.80
2018-05-31T03:46:53.349Z,10.20
2018-05-31T03:47:53.291Z,11.40
2018-05-31T03:48:53.233Z,11.60
2018-05-31T03:49:53.173Z,10.90
2018-05-31T03:50:53.114Z,11.10
2018-05-31T03:51:53.058Z,11.30
2018-05-31T03:52:53.001Z,11.70
2018-05-31T03:53:52.940Z,11.30
2018-05-31T03:54:52.882Z,11.40
2018-05-31T03:55:52.831Z,10.80
2018-05-31T03:56:52.785Z,11.50
2018-05-31T03:57:52.711Z,11.60
2018-05-31T03:58:52.656Z,11.20
2018-05-31T03:59:52.594Z,11.80
2018-05-31T04:00:52.536Z,11.60
2018-05-31T04:01:52.483Z,11.20
2018-05-31T04:02:52.422Z,11.60
2018-05-31T04:03:52.363Z,11.40
2018-05-31T04:04:52.351Z,11.20
2018-05-31T04:05:52.248Z,11.50
2018-05-31T04:06:52.188Z,12.00
2018-05-31T04:07:52.133Z,11.50
2018-05-31T04:08:52.071Z,12.10
2018-05-31T04:09:52.017Z,11.40
2018-05-31T04:10:51.957Z,11.70
2018-05-31T04:11:51.900Z,11.10
2018-05-31T04:12:51.847Z,12.10
2018-05-31T04:13:51.780Z,11.40
2018-05-31T04:14:51.723Z,11.90
2018-05-31T04:15:51.668Z,11.80
2018-05-31T04:16:51.615Z,12.10
2018-05-31T04:17:51.557Z,12.20
2018-05-31T04:18:51.493Z,12.30
2018-05-31T04:19:51.436Z,11.60
2018-05-31T04:20:51.378Z,12.20
2018-05-31T04:21:51.321Z,11.90
2018-05-31T04:22:51.264Z,12.00
2018-05-31T04:23:51.211Z,11.70
2018-05-31T04:24:51.150Z,11.50
2018-05-31T04:25:51.091Z,12.10
2018-05-31T04:26:51.031Z,12.00
2018-05-31T04:27:50.974Z,12.50
2018-05-31T04:28:50.914Z,12.70
2018-05-31T04:29:50.862Z,11.80
2018-05-31T04:30:50.801Z,12.00
2018-05-31T04:31:50.744Z,12.00
2018-05-31T04:32:50.685Z,11.80
2018-05-31T04:33:50.629Z,11.90
2018-05-31T04:34:50.577Z,11.80
2018-05-31T04:35:50.518Z,11.90
2018-05-31T04:36:50.456Z,12.40
2018-05-31T04:37:50.399Z,11.50
2018-05-31T04:38:50.340Z,13.10
2018-05-31T04:39:50.283Z,12.60
2018-05-31T04:40:50.236Z,12.30
2018-05-31T04:41:50.170Z,12.20
2018-05-31T04:42:50.112Z,12.10
2018-05-31T04:43:50.049Z,12.60
2018-05-31T04:44:49.998Z,11.80
2018-05-31T04:45:49.936Z,11.20
2018-05-31T04:46:49.877Z,18.30
2018-05-31T04:47:49.820Z,15.80
2018-05-31T04:48:49.762Z,12.20
2018-05-31T04:49:49.707Z,12.30
2018-05-31T04:50:49.649Z,11.90
2018-05-31T04:51:49.603Z,11.60
2018-05-31T04:52:49.537Z,11.30
2018-05-31T04:53:49.477Z,11.80
2018-05-31T04:54:49.419Z,12.30
2018-05-31T04:55:49.361Z,11.30
2018-05-31T04:56:49.306Z,11.70
2018-05-31T04:57:49.246Z,12.20
2018-05-31T04:58:49.189Z,11.80
2018-05-31T04:59:49.131Z,11.10
2018-05-31T05:00:49.074Z,12.10
2018-05-31T05:01:49.020Z,11.50
2018-05-31T05:02:48.966Z,12.00
2018-05-31T05:03:48.904Z,12.50
2018-05-31T05:04:48.855Z,11.90
2018-05-31T05:05:48.787Z,11.10
2018-05-31T05:06:48.728Z,11.80
2018-05-31T05:07:48.673Z,11.40
2018-05-31T05:08:48.619Z,11.30
2018-05-31T05:09:48.558Z,11.30
2018-05-31T05:10:48.500Z,11.40
2018-05-31T05:11:48.442Z,11.40
2018-05-31T05:12:48.385Z,11.30
2018-05-31T05:13:48.331Z,12.60
2018-05-31T05:14:48.280Z,11.70
2018-05-31T05:15:48.222Z,10.90
2018-05-31T05:16:48.166Z,10.50
2018-05-31T05:17:48.099Z,12.20
2018-05-31T05:18:48.053Z,11.00
2018-05-31T05:19:47.989Z,11.50
2018-05-31T05:20:47.933Z,11.00
2018-05-31T05:21:47.877Z,10.50
2018-05-31T05:22:47.821Z,11.00
2018-05-31T05:23:47.760Z,11.20
2018-05-31T05:24:47.706Z,11.30
2018-05-31T05:25:47.652Z,11.30
2018-05-31T05:26:47.597Z,10.70
2018-05-31T05:27:47.537Z,11.60
2018-05-31T05:28:47.482Z,11.30
2018-05-31T05:29:47.425Z,10.50
2018-05-31T05:30:47.368Z,10.90
2018-05-31T05:31:47.312Z,10.30
2018-05-31T05:32:47.262Z,11.70
2018-05-31T05:33:47.201Z,10.90
2018-05-31T05:34:47.145Z,10.90
2018-05-31T05:35:47.092Z,10.80
2018-05-31T05:36:47.035Z,10.60
2018-05-31T05:37:46.981Z,11.80
2018-05-31T05:38:46.920Z,11.50
2018-05-31T05:39:46.863Z,11.30
2018-05-31T05:40:46.810Z,11.00
2018-05-31T05:41:46.750Z,11.20
2018-05-31T05:42:46.694Z,11.20
2018-05-31T05:43:46.637Z,10.50
2018-05-31T05:44:46.579Z,11.10
2018-05-31T05:45:46.527Z,11.20
2018-05-31T05:46:46.467Z,10.30
2018-05-31T05:47:46.414Z,10.80
2018-05-31T05:48:46.362Z,10.60
2018-05-31T05:49:46.300Z,11.20
2018-05-31T05:50:46.245Z,11.60
2018-05-31T05:51:46.182Z,11.20
2018-05-31T05:52:46.132Z,10.20
2018-05-31T05:53:46.078Z,11.20
2018-05-31T05:54:46.022Z,10.90
2018-05-31T05:55:45.967Z,11.40
2018-05-31T05:56:45.904Z,10.70
2018-05-31T05:57:45.852Z,11.10
2018-05-31T05:58:45.800Z,11.60
2018-05-31T05:59:45.742Z,11.60
2018-05-31T06:00:45.686Z,11.10
2018-05-31T06:01:45.639Z,11.50
2018-05-31T06:02:45.569Z,11.20
2018-05-31T06:03:45.514Z,10.30
2018-05-31T06:04:45.456Z,10.40
2018-05-31T06:05:45.400Z,11.30
2018-05-31T06:06:45.351Z,11.30
2018-05-31T06:07:45.292Z,11.50
2018-05-31T06:08:45.240Z,10.70
2018-05-31T06:09:45.178Z,10.70
2018-05-31T06:10:45.118Z,10.50
2018-05-31T06:11:45.066Z,10.30
2018-05-31T06:12:45.016Z,12.00
2018-05-31T06:13:44.955Z,10.70
2018-05-31T06:14:44.898Z,9.80
2018-05-31T06:15:44.840Z,10.00
2018-05-31T06:16:44.786Z,10.10
2018-05-31T06:17:44.731Z,10.80
2018-05-31T06:18:44.672Z,10.40
2018-05-31T06:19:44.638Z,11.40
2018-05-31T06:20:44.563Z,27.10
2018-05-31T06:21:44.509Z,14.10
2018-05-31T06:22:44.448Z,12.10
2018-05-31T06:23:44.397Z,19.30
2018-05-31T06:24:44.339Z,10.60
2018-05-31T06:25:44.286Z,10.50
2018-05-31T06:26:44.235Z,10.10
2018-05-31T06:27:44.175Z,10.80
2018-05-31T06:28:44.116Z,10.20
2018-05-31T06:29:44.072Z,10.50
2018-05-31T06:30:44.007Z,9.30
2018-05-31T06:31:43.950Z,10.20
2018-05-31T06:32:43.897Z,10.00
2018-05-31T06:33:43.841Z,9.50
2018-05-31T06:34:43.780Z,9.90
2018-05-31T06:35:43.727Z,9.40
2018-05-31T06:36:43.668Z,9.00
2018-05-31T06:37:43.619Z,10.00
2018-05-31T06:38:43.563Z,9.60
2018-05-31T06:39:43.508Z,9.40
2018-05-31T06:40:43.456Z,10.40
2018-05-31T06:41:43.394Z,10.90
2018-05-31T06:42:43.339Z,9.50
2018-05-31T06:43:43.301Z,9.00
2018-05-31T06:44:43.231Z,9.60
2018-05-31T06:45:43.175Z,9.80
2018-05-31T06:46:43.118Z,9.50
2018-05-31T06:47:43.063Z,9.30
2018-05-31T06:48:43.006Z,8.50
2018-05-31T06:49:42.957Z,9.20
2018-05-31T06:50:42.901Z,9.40
2018-05-31T06:51:42.857Z,9.30
2018-05-31T06:52:42.790Z,8.30
2018-05-31T06:53:42.732Z,9.30
2018-05-31T06:54:42.681Z,8.70
2018-05-31T06:55:42.628Z,8.60
2018-05-31T06:56:42.568Z,9.50
2018-05-31T06:57:42.514Z,9.10
2018-05-31T06:58:42.459Z,8.00
2018-05-31T06:59:42.408Z,9.20
2018-05-31T07:00:42.357Z,8.40
2018-05-31T07:01:42.296Z,8.40
2018-05-31T07:02:42.246Z,8.50
2018-05-31T07:03:42.185Z,8.10
2018-05-31T07:04:42.139Z,8.60
2018-05-31T07:05:42.082Z,8.90
2018-05-31T07:06:42.047Z,8.30
2018-05-31T07:07:41.965Z,8.10
2018-05-31T07:08:41.912Z,8.00
2018-05-31T07:09:41.859Z,7.70
2018-05-31T07:10:41.804Z,7.80
2018-05-31T07:11:41.746Z,8.70
2018-05-31T07:12:41.694Z,8.80
2018-05-31T07:13:41.637Z,7.80
2018-05-31T07:14:41.580Z,8.60
2018-05-31T07:15:41.527Z,7.90
2018-05-31T07:16:41.475Z,7.90
2018-05-31T07:17:41.419Z,7.70
2018-05-31T07:18:41.363Z,7.40
2018-05-31T07:19:41.317Z,7.70
2018-05-31T07:20:41.254Z,8.00
2018-05-31T07:21:41.228Z,8.10
2018-05-31T07:22:41.147Z,8.20
2018-05-31T07:23:41.105Z,8.40
2018-05-31T07:24:41.040Z,8.70
2018-05-31T07:25:40.983Z,7.90
2018-05-31T07:26:40.927Z,7.90
2018-05-31T07:27:40.885Z,7.60
2018-05-31T07:28:40.818Z,7.50
2018-05-31T07:29:40.769Z,7.50
2018-05-31T07:30:40.710Z,8.10
2018-05-31T07:31:40.653Z,8.20
2018-05-31T07:32:40.600Z,7.50
2018-05-31T07:33:40.555Z,7.70
2018-05-31T07:34:40.493Z,7.50
2018-05-31T07:35:40.439Z,8.60
2018-05-31T07:36:40.400Z,8.10
2018-05-31T07:37:40.329Z,8.30
2018-05-31T07:38:40.276Z,12.40
2018-05-31T07:39:40.221Z,7.40
2018-05-31T07:40:40.165Z,7.00
2018-05-31T07:41:40.111Z,7.50
2018-05-31T07:42:40.057Z,8.90
2018-05-31T07:43:40.011Z,9.00
2018-05-31T07:44:39.950Z,12.00
2018-05-31T07:45:39.895Z,7.80
2018-05-31T07:46:39.839Z,8.40
2018-05-31T07:47:39.788Z,7.30
2018-05-31T07:48:39.734Z,7.60
2018-05-31T07:49:39.677Z,7.70
2018-05-31T07:50:39.633Z,7.60
2018-05-31T07:51:39.569Z,7.90
2018-05-31T07:52:39.516Z,7.80
2018-05-31T07:53:39.464Z,7.80
2018-05-31T07:54:39.407Z,7.80
2018-05-31T07:55:39.359Z,7.50
2018-05-31T07:56:39.324Z,8.50
2018-05-31T07:57:39.245Z,8.20
2018-05-31T07:58:39.192Z,7.00
2018-05-31T07:59:39.135Z,6.80
2018-05-31T08:00:39.085Z,7.00
2018-05-31T08:01:39.036Z,6.80
2018-05-31T08:02:38.977Z,7.10
2018-05-31T08:03:38.921Z,7.30
2018-05-31T08:04:38.870Z,8.00
2018-05-31T08:05:38.852Z,7.10
2018-05-31T08:06:38.763Z,7.20
2018-05-31T08:07:38.708Z,7.30
2018-05-31T08:08:38.654Z,7.30
2018-05-31T08:09:38.599Z,8.20
2018-05-31T08:10:38.542Z,6.90
2018-05-31T08:11:38.495Z,6.20
2018-05-31T08:12:38.433Z,7.20
2018-05-31T08:13:38.386Z,6.50
2018-05-31T08:14:38.337Z,6.60
2018-05-31T08:15:38.278Z,6.30
2018-05-31T08:16:38.223Z,6.60
2018-05-31T08:17:38.169Z,6.90
2018-05-31T08:18:38.118Z,6.50
2018-05-31T08:19:38.063Z,6.50
2018-05-31T08:20:38.016Z,8.40
2018-05-31T08:21:37.955Z,13.30
2018-05-31T08:22:37.901Z,7.70
2018-05-31T08:23:37.853Z,7.60
2018-05-31T08:24:37.795Z,7.60
2018-05-31T08:25:37.745Z,6.40
2018-05-31T08:26:37.688Z,6.90
2018-05-31T08:27:37.635Z,6.20
2018-05-31T08:28:37.582Z,7.30
2018-05-31T08:29:37.546Z,7.10
2018-05-31T08:30:37.472Z,9.00
2018-05-31T08:31:37.473Z,7.50
2018-05-31T08:32:37.364Z,6.10
2018-05-31T08:33:37.319Z,8.50
2018-05-31T08:34:37.259Z,7.10
2018-05-31T08:35:37.204Z,7.80
2018-05-31T08:36:37.150Z,14.40
2018-05-31T08:37:37.100Z,8.90
2018-05-31T08:38:37.049Z,7.50
2018-05-31T08:39:36.993Z,34.10
2018-05-31T08:40:36.947Z,6.50
2018-05-31T08:41:36.881Z,6.30
2018-05-31T08:42:36.830Z,6.40
2018-05-31T08:43:36.777Z,6.80
2018-05-31T08:44:36.756Z,7.60
2018-05-31T08:45:36.678Z,7.70
2018-05-31T08:46:36.616Z,6.10
2018-05-31T08:47:36.566Z,6.10
2018-05-31T08:48:36.512Z,6.40
2018-05-31T08:49:36.455Z,6.70
2018-05-31T08:50:36.400Z,7.10
2018-05-31T08:51:36.355Z,6.70
2018-05-31T08:52:36.299Z,6.60
2018-05-31T08:53:36.247Z,8.70
2018-05-31T08:54:36.189Z,8.30
2018-05-31T08:55:36.136Z,7.10
2018-05-31T08:56:36.082Z,7.30
2018-05-31T08:57:36.035Z,7.40
2018-05-31T08:58:35.978Z,6.50
2018-05-31T08:59:35.927Z,6.50
2018-05-31T09:00:35.871Z,6.90
2018-05-31T09:01:35.819Z,6.40
2018-05-31T09:02:35.762Z,6.50
2018-05-31T09:03:35.708Z,7.30
2018-05-31T09:04:35.657Z,6.60
2018-05-31T09:05:35.620Z,6.60
2018-05-31T09:06:35.551Z,6.30
2018-05-31T09:07:35.497Z,6.30
2018-05-31T09:08:35.444Z,7.10
2018-05-31T09:09:35.393Z,6.90
2018-05-31T09:10:35.340Z,7.00
2018-05-31T09:11:35.287Z,6.80
2018-05-31T09:12:35.241Z,7.60
2018-05-31T09:13:35.180Z,7.00
2018-05-31T09:14:35.128Z,7.10
2018-05-31T09:15:35.072Z,6.70
2018-05-31T09:16:35.032Z,7.00
2018-05-31T09:17:34.971Z,6.70
2018-05-31T09:18:34.915Z,6.80
2018-05-31T09:19:34.863Z,7.00
2018-05-31T09:20:34.817Z,10.30
2018-05-31T09:21:34.753Z,7.80
2018-05-31T09:22:34.698Z,6.80
2018-05-31T09:23:34.651Z,7.50
2018-05-31T09:24:34.598Z,6.60
2018-05-31T09:25:34.540Z,7.10
2018-05-31T09:26:34.503Z,6.40
2018-05-31T09:27:34.433Z,6.40
2018-05-31T09:28:34.388Z,6.90
2018-05-31T09:29:34.330Z,7.90
2018-05-31T09:30:34.279Z,7.70
2018-05-31T09:31:34.223Z,7.40
2018-05-31T09:32:34.170Z,7.00
2018-05-31T09:33:34.117Z,7.20
2018-05-31T09:34:34.063Z,6.70
2018-05-31T09:35:34.009Z,7.00
2018-05-31T09:36:33.956Z,6.60
2018-05-31T09:37:33.906Z,7.80
2018-05-31T09:38:33.858Z,6.60
2018-05-31T09:39:33.797Z,6.80
2018-05-31T09:40:33.744Z,6.60
2018-05-31T09:41:33.695Z,7.30
2018-05-31T09:42:33.640Z,9.00
2018-05-31T09:43:33.587Z,9.30
2018-05-31T09:44:33.538Z,7.30
2018-05-31T09:45:33.481Z,7.80
2018-05-31T09:46:33.448Z,7.60
2018-05-31T09:47:33.373Z,7.80
2018-05-31T09:48:33.328Z,8.70
2018-05-31T09:49:33.270Z,7.60
2018-05-31T09:50:33.218Z,6.50
2018-05-31T09:51:33.165Z,7.60
2018-05-31T09:52:33.110Z,6.70
2018-05-31T09:53:33.061Z,7.10
2018-05-31T09:54:33.005Z,7.20
2018-05-31T09:55:32.956Z,7.00
2018-05-31T09:56:32.908Z,7.50
2018-05-31T09:57:32.845Z,7.40
2018-05-31T09:58:32.792Z,7.40
2018-05-31T09:59:32.741Z,7.00
2018-05-31T10:00:32.695Z,7.40
2018-05-31T10:01:32.636Z,7.50
2018-05-31T10:02:32.586Z,9.60
2018-05-31T10:03:32.535Z,7.90
2018-05-31T10:04:32.479Z,6.80
2018-05-31T10:05:32.424Z,6.80
2018-05-31T10:06:32.375Z,7.30
2018-05-31T10:07:32.324Z,7.00
2018-05-31T10:08:32.268Z,8.90
2018-05-31T10:09:32.221Z,7.70
2018-05-31T10:10:32.162Z,6.90
2018-05-31T10:11:32.108Z,6.70
2018-05-31T10:12:32.057Z,6.60
2018-05-31T10:13:32.006Z,6.80
2018-05-31T10:14:31.956Z,6.70
2018-05-31T10:15:31.905Z,7.00
2018-05-31T10:16:31.849Z,7.20
2018-05-31T10:17:31.798Z,7.80
2018-05-31T10:18:31.741Z,6.80
2018-05-31T10:19:31.695Z,7.10
2018-05-31T10:20:31.639Z,7.20
2018-05-31T10:21:31.587Z,8.00
2018-05-31T10:22:31.531Z,16.70
2018-05-31T10:23:31.479Z,8.20
2018-05-31T10:24:31.438Z,7.40
2018-05-31T10:25:31.382Z,9.40
2018-05-31T10:26:31.323Z,8.00
2018-05-31T10:27:31.268Z,7.20
2018-05-31T10:28:31.220Z,6.40
2018-05-31T10:29:31.172Z,8.20
2018-05-31T10:30:31.115Z,7.60
2018-05-31T10:31:31.065Z,6.80
2018-05-31T10:32:31.013Z,7.80
2018-05-31T10:33:30.956Z,10.70
2018-05-31T10:34:30.901Z,13.50
2018-05-31T10:35:30.856Z,7.50
2018-05-31T10:36:30.797Z,6.70
2018-05-31T10:37:30.746Z,6.00
2018-05-31T10:38:30.695Z,6.70
2018-05-31T10:39:30.646Z,8.20
2018-05-31T10:40:30.591Z,9.90
2018-05-31T10:41:30.537Z,7.80
2018-05-31T10:42:30.484Z,6.90
2018-05-31T10:43:30.434Z,6.70
2018-05-31T10:44:30.382Z,6.50
2018-05-31T10:45:30.331Z,6.50
2018-05-31T10:46:30.290Z,6.50
2018-05-31T10:47:30.224Z,6.80
2018-05-31T10:48:30.175Z,6.20
2018-05-31T10:49:30.119Z,6.40
2018-05-31T10:50:30.069Z,7.10
2018-05-31T10:51:30.016Z,6.50
2018-05-31T10:52:29.968Z,7.20
2018-05-31T10:53:29.914Z,6.80
2018-05-31T10:54:29.861Z,6.80
2018-05-31T10:55:29.807Z,7.00
2018-05-31T10:56:29.752Z,23.70
2018-05-31T10:57:29.714Z,9.80
2018-05-31T10:58:29.652Z,7.40
2018-05-31T10:59:29.599Z,7.40
2018-05-31T11:00:29.546Z,8.30
2018-05-31T11:01:29.500Z,7.90
2018-05-31T11:02:29.446Z,6.80
2018-05-31T11:03:29.396Z,6.70
2018-05-31T11:04:29.353Z,7.20
2018-05-31T11:05:29.288Z,7.10
2018-05-31T11:06:29.237Z,7.40
2018-05-31T11:07:29.185Z,7.50
2018-05-31T11:08:29.136Z,7.10
2018-05-31T11:09:29.089Z,8.10
2018-05-31T11:10:29.031Z,9.30
2018-05-31T11:11:28.985Z,6.70
2018-05-31T11:12:28.933Z,7.50
2018-05-31T11:13:28.883Z,5.70
2018-05-31T11:14:28.833Z,6.10
2018-05-31T11:15:28.784Z,6.20
2018-05-31T11:16:28.741Z,6.30
2018-05-31T11:17:28.684Z,5.80
2018-05-31T11:18:28.644Z,6.20
2018-05-31T11:19:28.587Z,6.20
2018-05-31T11:20:28.541Z,6.30
2018-05-31T11:21:28.504Z,6.00
2018-05-31T11:22:28.444Z,6.40
2018-05-31T11:23:28.409Z,5.30
2018-05-31T11:24:28.352Z,7.00
2018-05-31T11:25:28.302Z,11.40
2018-05-31T11:26:28.250Z,6.20
2018-05-31T11:27:28.206Z,7.50
2018-05-31T11:28:28.158Z,7.20
2018-05-31T11:29:28.115Z,6.10
2018-05-31T11:30:28.068Z,6.00
2018-05-31T11:31:28.021Z,7.30
2018-05-31T11:32:27.975Z,6.40
2018-05-31T11:33:27.928Z,6.50
2018-05-31T11:34:27.888Z,6.00
2018-05-31T11:35:27.840Z,5.00
2018-05-31T11:36:27.803Z,5.20
2018-05-31T11:37:27.754Z,5.20
2018-05-31T11:38:27.707Z,5.50
2018-05-31T11:39:27.664Z,5.30
2018-05-31T11:40:27.622Z,5.20
2018-05-31T11:41:27.602Z,5.40
2018-05-31T11:42:27.537Z,5.50
2018-05-31T11:43:27.495Z,5.20
2018-05-31T11:44:27.452Z,6.00
2018-05-31T11:45:27.407Z,5.50
2018-05-31T11:46:27.365Z,5.60
2018-05-31T11:47:27.327Z,5.70
2018-05-31T11:48:27.285Z,5.70
2018-05-31T11:49:27.236Z,6.20
2018-05-31T11:50:27.197Z,5.90
2018-05-31T11:51:27.190Z,5.80
2018-05-31T11:52:27.116Z,5.60
2018-05-31T11:53:27.083Z,5.30
2018-05-31T11:54:27.035Z,6.10
2018-05-31T11:55:26.996Z,5.50
2018-05-31T11:56:26.983Z,5.70
2018-05-31T11:57:26.911Z,5.80
2018-05-31T11:58:26.868Z,5.20
2018-05-31T11:59:26.829Z,4.90
2018-05-31T12:00:26.802Z,5.20
2018-05-31T12:01:26.755Z,5.60
2018-05-31T12:02:26.710Z,5.40
2018-05-31T12:03:26.668Z,4.90
2018-05-31T12:04:26.626Z,5.10
2018-05-31T12:05:26.590Z,5.20
2018-05-31T12:06:26.602Z,4.70
2018-05-31T12:07:26.511Z,5.10
2018-05-31T12:08:26.476Z,4.40
2018-05-31T12:09:26.427Z,4.80
2018-05-31T12:10:26.389Z,5.00
2018-05-31T12:11:26.351Z,4.90
2018-05-31T12:12:26.326Z,4.50
2018-05-31T12:13:26.275Z,5.00
2018-05-31T12:14:26.241Z,3.90
2018-05-31T12:15:26.195Z,4.80
2018-05-31T12:16:26.167Z,4.70
2018-05-31T12:17:26.156Z,5.20
2018-05-31T12:18:26.082Z,4.70
2018-05-31T12:19:26.052Z,4.80
2018-05-31T12:20:26.007Z,4.90
2018-05-31T12:21:25.966Z,4.60
2018-05-31T12:22:25.924Z,4.60
2018-05-31T12:23:25.886Z,4.80
2018-05-31T12:24:25.844Z,4.20
2018-05-31T12:25:25.827Z,4.30
2018-05-31T12:26:25.778Z,4.70
2018-05-31T12:27:25.737Z,4.50
2018-05-31T12:28:25.701Z,4.60
2018-05-31T12:29:25.659Z,4.30
2018-05-31T12:30:25.622Z,5.00
2018-05-31T12:31:25.584Z,4.30
2018-05-31T12:32:25.546Z,4.10
2018-05-31T12:33:25.522Z,4.50
2018-05-31T12:34:25.476Z,4.40
2018-05-31T12:35:25.434Z,3.90
2018-05-31T12:36:25.398Z,4.10
2018-05-31T12:37:25.365Z,4.00
2018-05-31T12:38:25.324Z,4.50
2018-05-31T12:39:25.290Z,4.50
2018-05-31T12:40:25.251Z,4.20
2018-05-31T12:41:25.212Z,4.00
2018-05-31T12:42:25.174Z,3.80
2018-05-31T12:43:25.138Z,3.90
2018-05-31T12:44:25.101Z,3.90
2018-05-31T12:45:25.064Z,3.50
2018-05-31T12:46:25.034Z,3.90
2018-05-31T12:47:24.993Z,3.80
2018-05-31T12:48:24.955Z,4.00
2018-05-31T12:49:24.918Z,4.00
2018-05-31T12:50:24.884Z,3.50
2018-05-31T12:51:24.847Z,4.20
2018-05-31T12:52:24.808Z,3.70
2018-05-31T12:53:24.792Z,4.20
2018-05-31T12:54:24.741Z,4.00
2018-05-31T12:55:24.697Z,4.70
2018-05-31T12:56:24.673Z,3.90
2018-05-31T12:57:24.630Z,6.10
2018-05-31T12:58:24.591Z,4.00
2018-05-31T12:59:24.557Z,3.40
2018-05-31T13:00:24.518Z,3.70
2018-05-31T13:01:24.483Z,3.50
2018-05-31T13:02:24.446Z,4.10
2018-05-31T13:03:24.411Z,3.80
2018-05-31T13:04:24.373Z,3.70